Time;durP1;ratioP1;P1;durP2;ratioP2;P2;SDS_P1;SDS_P2;PMS_P1;PMS_P2;Temp;Humidity;BMP_temperature;BMP_pressure;BME280_temperature;BME280_humidity;BME280_pressure;Samples;Min_cycle;Max_cycle;Signal;HPM_P1;HPM_P2
2023/06/27 00:01:06;;;;;;;4.82;1.42;;;20.60;56.80;;;;;;5069652;28;20020;-81
2023/06/27 00:03:36;;;;;;;2.90;2.03;;;20.60;57.00;;;;;;5060311;28;20033;-82
2023/06/27 00:06:04;;;;;;;4.65;1.65;;;20.60;57.00;;;;;;5049008;28;20029;-82
2023/06/27 00:08:31;;;;;;;5.65;1.80;;;20.50;57.20;;;;;;5087995;28;20044;-83
2023/06/27 00:10:57;;;;;;;1.85;1.60;;;20.50;57.30;;;;;;5073650;28;20082;-83
2023/06/27 00:13:23;;;;;;;2.53;1.65;;;20.40;57.40;;;;;;5092653;28;20124;-80
2023/06/27 00:15:52;;;;;;;4.50;1.52;;;20.40;57.70;;;;;;5073808;28;20029;-80
2023/06/27 00:18:21;;;;;;;4.60;1.50;;;20.40;57.70;;;;;;5067754;28;20043;-81
2023/06/27 00:20:50;;;;;;;2.50;1.83;;;20.40;57.40;;;;;;5065979;28;20021;-82
2023/06/27 00:23:18;;;;;;;3.42;1.75;;;20.40;57.60;;;;;;5054617;28;20044;-83
2023/06/27 00:25:44;;;;;;;5.32;1.90;;;20.30;57.30;;;;;;5047781;28;20153;-83
2023/06/27 00:28:10;;;;;;;2.65;1.50;;;20.30;57.40;;;;;;5063097;28;20029;-82
2023/06/27 00:30:36;;;;;;;3.13;1.70;;;20.30;57.70;;;;;;5081966;28;20088;-82
2023/06/27 00:33:02;;;;;;;3.15;1.77;;;20.30;57.50;;;;;;5075775;28;20055;-80
2023/06/27 00:35:32;;;;;;;3.53;1.48;;;20.20;58.10;;;;;;5055084;28;20029;-82
2023/06/27 00:38:00;;;;;;;2.53;1.35;;;20.20;57.90;;;;;;5061443;28;20084;-81
2023/06/27 00:40:26;;;;;;;3.58;1.80;;;20.20;57.90;;;;;;5072872;28;20025;-81
2023/06/27 00:42:51;;;;;;;2.72;1.80;;;20.20;58.00;;;;;;5082209;28;20051;-82
2023/06/27 00:45:18;;;;;;;1.67;1.35;;;20.20;58.00;;;;;;5079353;28;20078;-81
2023/06/27 00:47:44;;;;;;;2.80;1.92;;;20.10;58.00;;;;;;5083260;28;20035;-81
2023/06/27 00:50:10;;;;;;;3.28;1.50;;;20.10;58.10;;;;;;5083086;28;20025;-82
2023/06/27 00:52:38;;;;;;;1.50;1.23;;;20.10;58.20;;;;;;5059667;28;20040;-81
2023/06/27 00:55:04;;;;;;;3.35;1.52;;;20.10;58.10;;;;;;5061683;28;20052;-81
2023/06/27 00:57:31;;;;;;;2.95;1.63;;;20.00;58.30;;;;;;5082105;28;20016;-82
2023/06/27 00:59:56;;;;;;;2.25;1.73;;;20.00;58.40;;;;;;5072917;28;20073;-81
2023/06/27 01:02:23;;;;;;;2.05;1.48;;;20.00;58.40;;;;;;5077100;28;20024;-81
2023/06/27 01:04:51;;;;;;;2.55;1.50;;;20.00;58.40;;;;;;5046927;28;20029;-80
2023/06/27 01:07:25;;;;;;;1.90;1.35;;;20.00;58.50;;;;;;5043890;28;20029;-79
2023/06/27 01:09:54;;;;;;;2.47;1.67;;;20.00;58.60;;;;;;5075935;28;20029;-81
2023/06/27 01:12:55;;;;;;;2.08;1.27;;;20.00;58.60;;;;;;5067400;28;20080;-80
2023/06/27 01:15:21;;;;;;;4.60;1.65;;;19.90;58.70;;;;;;5022110;28;20164;-80
2023/06/27 01:17:49;;;;;;;3.58;1.48;;;20.00;58.70;;;;;;5073370;28;20084;-80
2023/06/27 01:20:15;;;;;;;1.95;1.75;;;19.90;58.80;;;;;;5068210;28;20052;-80
2023/06/27 01:22:53;;;;;;;1.98;1.70;;;19.90;59.10;;;;;;5083193;28;20023;-80
2023/06/27 01:25:19;;;;;;;3.55;2.05;;;19.90;59.20;;;;;;5067538;28;20481;-80
2023/06/27 01:27:44;;;;;;;1.65;1.38;;;19.80;59.40;;;;;;5081659;28;20099;-80
2023/06/27 01:30:11;;;;;;;5.05;1.77;;;19.80;59.80;;;;;;5089528;28;20028;-81
2023/06/27 01:32:47;;;;;;;4.80;1.70;;;19.70;59.70;;;;;;5073836;28;20076;-80
2023/06/27 01:35:27;;;;;;;3.47;1.67;;;19.70;59.90;;;;;;5069860;28;20017;-80
2023/06/27 01:38:02;;;;;;;3.65;1.30;;;19.70;59.80;;;;;;5078390;28;20083;-81
2023/06/27 01:40:32;;;;;;;4.32;1.20;;;19.70;59.70;;;;;;5077726;28;20061;-81
2023/06/27 01:43:04;;;;;;;2.10;1.20;;;19.60;59.90;;;;;;5067686;28;20020;-80
2023/06/27 01:45:34;;;;;;;1.15;1.00;;;19.60;60.10;;;;;;5069532;28;20037;-79
2023/06/27 01:48:01;;;;;;;2.53;1.50;;;19.60;60.20;;;;;;5083580;28;20047;-80
2023/06/27 01:50:27;;;;;;;4.95;2.13;;;19.60;60.20;;;;;;5058049;28;20051;-80
2023/06/27 01:52:53;;;;;;;2.97;1.73;;;19.60;60.30;;;;;;5064347;28;20056;-80
2023/06/27 01:55:19;;;;;;;4.03;1.52;;;19.60;60.30;;;;;;5050297;28;20020;-81
2023/06/27 01:57:45;;;;;;;2.72;1.40;;;19.60;60.30;;;;;;5084330;28;20021;-79
2023/06/27 02:00:11;;;;;;;2.00;1.38;;;19.60;60.40;;;;;;5095060;28;20114;-79
2023/06/27 02:02:37;;;;;;;2.65;1.52;;;19.50;60.70;;;;;;5102504;28;20465;-80
2023/06/27 02:05:03;;;;;;;4.63;1.58;;;19.50;60.80;;;;;;5081887;28;20131;-80
2023/06/27 02:07:28;;;;;;;2.15;1.38;;;19.50;60.70;;;;;;5045825;28;20048;-81
2023/06/27 02:09:54;;;;;;;1.67;1.38;;;19.40;60.80;;;;;;5062054;28;20118;-80
2023/06/27 02:12:20;;;;;;;2.60;1.52;;;19.40;61.10;;;;;;5046372;28;20033;-80
2023/06/27 02:14:49;;;;;;;2.67;1.23;;;19.40;61.20;;;;;;5062545;28;20040;-79
2023/06/27 02:17:14;;;;;;;1.63;1.45;;;19.40;61.40;;;;;;5069182;28;20039;-80
2023/06/27 02:19:40;;;;;;;3.42;1.25;;;19.40;61.40;;;;;;5070632;28;20473;-80
2023/06/27 02:22:06;;;;;;;3.78;1.75;;;19.40;61.40;;;;;;5076260;28;20058;-80
2023/06/27 02:24:32;;;;;;;3.65;1.40;;;19.30;61.40;;;;;;5072711;28;20027;-81
2023/06/27 02:26:58;;;;;;;1.83;1.13;;;19.30;61.50;;;;;;5096046;28;20081;-81
2023/06/27 02:29:24;;;;;;;2.50;1.35;;;19.30;61.80;;;;;;5098462;28;20077;-81
2023/06/27 02:31:49;;;;;;;2.58;1.67;;;19.30;61.80;;;;;;5090766;28;20034;-80
2023/06/27 02:34:15;;;;;;;4.35;1.67;;;19.30;61.90;;;;;;5079263;28;20374;-80
2023/06/27 02:36:41;;;;;;;5.00;1.65;;;19.20;62.00;;;;;;5063525;28;20197;-80
2023/06/27 02:39:07;;;;;;;2.10;1.30;;;19.10;62.10;;;;;;5065224;28;20028;-80
2023/06/27 02:41:32;;;;;;;3.60;1.33;;;19.10;62.50;;;;;;5060582;28;20017;-80
2023/06/27 02:43:58;;;;;;;3.03;1.40;;;19.20;62.40;;;;;;5057953;28;20048;-80
2023/06/27 02:46:24;;;;;;;2.08;1.80;;;19.20;62.30;;;;;;5060470;28;20043;-80
2023/06/27 02:48:49;;;;;;;2.35;1.52;;;19.20;62.20;;;;;;5061907;28;20040;-79
2023/06/27 02:51:15;;;;;;;4.78;2.13;;;19.20;62.20;;;;;;5061046;28;20086;-79
2023/06/27 02:53:41;;;;;;;1.80;1.50;;;19.10;62.20;;;;;;5060839;28;20539;-80
2023/06/27 02:56:07;;;;;;;5.82;2.33;;;19.10;62.40;;;;;;5052002;28;20463;-80
2023/06/27 02:58:33;;;;;;;3.00;1.95;;;19.10;62.30;;;;;;5083644;28;20017;-76
2023/06/27 03:01:01;;;;;;;2.50;1.80;;;19.10;62.40;;;;;;5081199;28;20024;-76
2023/06/27 03:03:27;;;;;;;2.80;1.70;;;19.00;62.40;;;;;;5075783;28;20046;-77
2023/06/27 03:05:53;;;;;;;5.03;1.35;;;19.00;62.60;;;;;;5064697;28;20100;-77
2023/06/27 03:08:19;;;;;;;1.90;1.48;;;18.90;62.80;;;;;;5059295;28;20523;-76
2023/06/27 03:10:44;;;;;;;4.65;1.58;;;18.90;63.00;;;;;;5062638;28;20120;-77
2023/06/27 03:13:10;;;;;;;1.85;0.95;;;18.90;62.90;;;;;;5076684;28;20029;-78
2023/06/27 03:15:36;;;;;;;5.03;1.60;;;18.80;62.90;;;;;;5076750;28;20124;-77
2023/06/27 03:18:04;;;;;;;2.75;1.60;;;18.80;63.00;;;;;;5077355;28;20025;-77
2023/06/27 03:20:33;;;;;;;2.35;1.60;;;18.80;63.20;;;;;;5078386;28;20032;-77
2023/06/27 03:22:59;;;;;;;2.17;1.30;;;18.80;63.30;;;;;;5060146;28;20044;-79
2023/06/27 03:25:24;;;;;;;2.00;1.63;;;18.80;63.30;;;;;;5077909;28;20028;-76
2023/06/27 03:27:50;;;;;;;1.73;1.33;;;18.80;63.20;;;;;;5070447;28;20055;-77
2023/06/27 03:30:16;;;;;;;1.70;1.30;;;18.80;63.30;;;;;;5082660;28;20065;-78
2023/06/27 03:32:41;;;;;;;3.97;1.20;;;18.80;63.40;;;;;;5077468;28;20046;-79
2023/06/27 03:35:07;;;;;;;3.05;1.90;;;18.80;63.50;;;;;;5076925;28;20149;-77
2023/06/27 03:37:34;;;;;;;3.65;1.80;;;18.80;63.50;;;;;;5075575;28;20069;-76
2023/06/27 03:40:00;;;;;;;3.05;1.85;;;18.80;63.80;;;;;;5075403;28;20016;-79
2023/06/27 03:42:26;;;;;;;2.58;1.52;;;18.80;63.80;;;;;;5042180;28;20025;-77
2023/06/27 03:44:51;;;;;;;5.78;1.88;;;18.80;63.40;;;;;;5038312;28;20029;-77
2023/06/27 03:47:17;;;;;;;2.92;1.42;;;18.80;63.60;;;;;;5056827;28;20601;-78
2023/06/27 03:49:43;;;;;;;3.95;1.58;;;18.80;63.10;;;;;;5055866;28;20032;-78
2023/06/27 03:52:10;;;;;;;4.70;1.80;;;18.80;63.30;;;;;;5037643;28;20025;-77
2023/06/27 03:54:36;;;;;;;3.35;1.48;;;18.80;63.40;;;;;;5056678;28;20462;-78
2023/06/27 03:57:01;;;;;;;2.60;1.52;;;18.80;63.10;;;;;;5038679;28;20035;-78
2023/06/27 03:59:27;;;;;;;6.85;1.65;;;18.80;63.40;;;;;;5073184;28;20036;-79
2023/06/27 04:01:53;;;;;;;3.45;1.52;;;18.70;63.30;;;;;;5057663;28;20436;-79
2023/06/27 04:04:18;;;;;;;2.22;1.40;;;18.70;63.50;;;;;;5049176;28;20021;-77
2023/06/27 04:06:44;;;;;;;2.03;1.23;;;18.70;63.60;;;;;;5058422;28;20045;-77
2023/06/27 04:09:10;;;;;;;2.08;1.10;;;18.70;63.70;;;;;;5076446;28;20032;-78
2023/06/27 04:11:36;;;;;;;5.63;1.50;;;18.70;63.50;;;;;;5075872;28;20025;-78
2023/06/27 04:14:02;;;;;;;2.33;1.45;;;18.60;63.40;;;;;;5063591;28;20052;-80
2023/06/27 04:16:28;;;;;;;3.53;1.55;;;18.60;63.60;;;;;;5080171;28;20088;-79
2023/06/27 04:18:54;;;;;;;4.55;1.60;;;18.60;63.60;;;;;;5092430;28;20047;-79
2023/06/27 04:21:21;;;;;;;6.38;2.13;;;18.60;63.70;;;;;;5060778;28;20062;-78
2023/06/27 04:23:46;;;;;;;7.82;1.38;;;18.60;63.50;;;;;;5077595;28;20425;-79
2023/06/27 04:26:15;;;;;;;4.13;1.48;;;18.60;63.70;;;;;;5077975;28;20052;-80
2023/06/27 04:28:49;;;;;;;2.38;1.25;;;18.60;63.70;;;;;;5074059;28;20020;-79
2023/06/27 04:31:15;;;;;;;6.38;1.83;;;18.60;63.70;;;;;;5077489;28;20088;-80
2023/06/27 04:33:41;;;;;;;2.90;1.50;;;18.60;63.80;;;;;;5079725;28;20029;-79
2023/06/27 04:36:15;;;;;;;6.82;1.60;;;18.60;63.40;;;;;;5077732;28;20088;-79
2023/06/27 04:38:42;;;;;;;2.35;1.30;;;18.50;63.40;;;;;;5069522;28;20081;-78
2023/06/27 04:41:08;;;;;;;4.90;1.52;;;18.50;63.70;;;;;;5057028;28;20132;-79
2023/06/27 04:43:34;;;;;;;6.07;1.67;;;18.40;63.60;;;;;;5074225;28;20035;-79
2023/06/27 04:46:01;;;;;;;2.85;1.15;;;18.40;63.70;;;;;;5079836;28;20029;-79
2023/06/27 04:48:27;;;;;;;3.92;1.10;;;18.40;64.00;;;;;;5078730;28;20146;-80
2023/06/27 04:50:54;;;;;;;3.40;1.40;;;18.40;63.80;;;;;;5079461;28;20044;-80
2023/06/27 04:53:20;;;;;;;4.70;1.40;;;18.40;63.90;;;;;;5073899;28;20069;-79
2023/06/27 04:55:50;;;;;;;1.85;1.13;;;18.40;64.20;;;;;;5075345;28;20089;-79
2023/06/27 04:58:17;;;;;;;3.05;1.42;;;18.30;64.00;;;;;;5069403;28;20353;-79
2023/06/27 05:00:44;;;;;;;1.13;0.90;;;18.30;64.10;;;;;;5085613;28;20039;-80
2023/06/27 05:03:10;;;;;;;2.25;1.10;;;18.30;64.20;;;;;;5078109;28;20029;-78
2023/06/27 05:05:36;;;;;;;2.13;1.30;;;18.30;64.40;;;;;;5078460;28;20085;-79
2023/06/27 05:08:03;;;;;;;2.45;1.52;;;18.30;64.30;;;;;;5079587;28;20029;-79
2023/06/27 05:10:32;;;;;;;3.10;1.40;;;18.30;64.50;;;;;;5080584;28;20097;-80
2023/06/27 05:12:58;;;;;;;4.85;1.73;;;18.30;64.60;;;;;;5083729;28;20552;-80
2023/06/27 05:15:24;;;;;;;3.90;1.63;;;18.40;64.70;;;;;;5068887;28;20095;-79
2023/06/27 05:18:15;;;;;;;4.53;1.65;;;18.40;64.50;;;;;;5076197;28;20032;-79
2023/06/27 05:20:41;;;;;;;4.78;1.58;;;18.40;64.50;;;;;;5095973;28;20044;-79
2023/06/27 05:23:07;;;;;;;2.85;1.50;;;18.40;64.50;;;;;;5095154;28;20024;-78
2023/06/27 05:25:33;;;;;;;2.17;1.35;;;18.40;64.40;;;;;;5093149;28;20024;-79
2023/06/27 05:27:59;;;;;;;3.60;1.67;;;18.50;64.80;;;;;;5084467;28;20032;-79
2023/06/27 05:30:26;;;;;;;2.20;1.45;;;18.60;64.50;;;;;;5066100;28;20020;-79
2023/06/27 05:32:52;;;;;;;2.95;1.65;;;18.60;64.50;;;;;;5065486;28;20077;-79
2023/06/27 05:35:17;;;;;;;4.07;1.73;;;18.60;64.40;;;;;;5065196;28;20066;-78
2023/06/27 05:37:43;;;;;;;2.90;1.55;;;18.60;64.30;;;;;;5066645;28;20020;-79
2023/06/27 05:40:09;;;;;;;2.83;1.58;;;18.60;64.50;;;;;;5066970;28;20191;-79
2023/06/27 05:42:36;;;;;;;1.73;1.25;;;18.60;64.40;;;;;;5083882;28;20127;-80
2023/06/27 05:45:02;;;;;;;2.92;1.50;;;18.50;64.70;;;;;;5076362;28;20044;-78
2023/06/27 05:47:28;;;;;;;2.28;1.17;;;18.60;64.40;;;;;;5064762;28;20036;-79
2023/06/27 05:49:53;;;;;;;6.93;1.50;;;18.70;64.30;;;;;;5063185;28;20029;-79
2023/06/27 05:52:19;;;;;;;1.40;1.20;;;18.70;64.10;;;;;;5064718;28;20044;-78
2023/06/27 05:54:45;;;;;;;1.63;1.42;;;18.80;63.90;;;;;;5076567;28;20441;-80
2023/06/27 05:57:11;;;;;;;3.63;1.70;;;18.80;64.60;;;;;;5069391;28;20056;-79
2023/06/27 05:59:37;;;;;;;6.15;1.67;;;18.80;63.80;;;;;;5070618;28;20086;-79
2023/06/27 06:02:03;;;;;;;3.60;1.48;;;18.80;63.60;;;;;;5065094;28;20528;-80
2023/06/27 06:04:30;;;;;;;2.40;1.40;;;18.70;63.60;;;;;;5082698;28;20461;-79
2023/06/27 06:06:55;;;;;;;6.72;1.77;;;18.70;63.80;;;;;;5072640;28;20028;-80
2023/06/27 06:09:21;;;;;;;2.58;1.35;;;18.80;63.80;;;;;;5064855;28;20446;-78
2023/06/27 06:11:47;;;;;;;1.38;1.20;;;19.00;63.30;;;;;;5083276;28;20076;-79
2023/06/27 06:14:13;;;;;;;3.22;1.27;;;19.10;63.10;;;;;;5083588;28;20757;-80
2023/06/27 06:16:38;;;;;;;2.20;1.23;;;19.30;62.40;;;;;;5079743;28;20056;-79
2023/06/27 06:19:04;;;;;;;2.08;1.30;;;19.40;62.10;;;;;;5083612;28;20043;-80
2023/06/27 06:21:30;;;;;;;2.88;1.35;;;19.40;62.00;;;;;;5081091;28;20024;-80
2023/06/27 06:24:00;;;;;;;1.45;1.35;;;19.40;61.90;;;;;;5080838;28;20029;-79
2023/06/27 06:26:25;;;;;;;1.90;1.33;;;19.30;61.90;;;;;;5065314;28;20029;-79
2023/06/27 06:28:51;;;;;;;1.27;0.85;;;19.20;63.00;;;;;;5083202;28;20055;-79
2023/06/27 06:31:18;;;;;;;1.95;1.17;;;19.10;62.60;;;;;;5099925;28;20480;-80
2023/06/27 06:33:44;;;;;;;2.60;1.30;;;19.00;63.20;;;;;;5094651;28;20078;-79
2023/06/27 06:36:10;;;;;;;2.33;1.58;;;19.00;63.10;;;;;;5080742;28;20040;-79
2023/06/27 06:38:36;;;;;;;3.78;1.42;;;18.90;63.00;;;;;;5063440;28;20025;-80
2023/06/27 06:41:03;;;;;;;4.57;1.63;;;18.90;63.30;;;;;;5082660;28;20031;-80
2023/06/27 06:43:29;;;;;;;1.90;1.10;;;18.90;63.20;;;;;;5062314;28;20028;-78
2023/06/27 06:45:54;;;;;;;2.17;1.38;;;18.90;63.20;;;;;;5047789;28;20424;-80
2023/06/27 06:48:20;;;;;;;3.40;1.83;;;19.00;63.30;;;;;;5080958;28;20099;-79
2023/06/27 06:50:47;;;;;;;2.33;1.33;;;19.10;63.10;;;;;;5064274;28;20068;-82
2023/06/27 06:53:13;;;;;;;3.63;1.88;;;19.20;63.00;;;;;;5058160;28;20064;-80
2023/06/27 06:55:38;;;;;;;3.35;1.70;;;19.30;62.50;;;;;;5044877;28;20017;-81
2023/06/27 06:58:04;;;;;;;6.25;2.38;;;19.20;62.30;;;;;;5072000;28;20050;-80
2023/06/27 07:00:30;;;;;;;3.45;1.80;;;19.20;62.50;;;;;;5088464;28;20024;-80
2023/06/27 07:02:57;;;;;;;1.85;1.65;;;19.10;62.90;;;;;;5066425;28;20052;-81
2023/06/27 07:05:23;;;;;;;3.63;1.77;;;19.10;63.10;;;;;;5082471;28;20088;-80
2023/06/27 07:07:49;;;;;;;5.15;2.58;;;19.10;63.00;;;;;;5076977;28;20028;-80
2023/06/27 07:10:15;;;;;;;3.10;1.83;;;19.10;62.90;;;;;;5061513;28;20021;-80
2023/06/27 07:12:40;;;;;;;5.35;1.85;;;19.00;62.90;;;;;;5063924;28;20066;-80
2023/06/27 07:15:07;;;;;;;3.47;1.30;;;18.90;63.10;;;;;;5064265;28;20198;-79
2023/06/27 07:17:33;;;;;;;3.47;1.30;;;18.90;63.50;;;;;;5082652;28;20089;-79
2023/06/27 07:19:59;;;;;;;1.65;1.35;;;18.90;63.60;;;;;;5064586;28;20124;-80
2023/06/27 07:22:25;;;;;;;2.72;1.50;;;19.00;63.40;;;;;;5080551;28;20027;-80
2023/06/27 07:24:51;;;;;;;3.03;1.58;;;19.20;63.30;;;;;;5062009;28;20021;-81
2023/06/27 07:27:17;;;;;;;3.47;1.98;;;19.50;62.60;;;;;;5051475;28;20024;-79
2023/06/27 07:29:43;;;;;;;2.55;1.50;;;19.70;62.00;;;;;;5081968;28;20123;-80
2023/06/27 07:32:13;;;;;;;1.27;1.17;;;19.90;61.40;;;;;;5063642;28;20032;-80
2023/06/27 07:34:39;;;;;;;2.25;1.50;;;20.30;60.90;;;;;;5057457;28;20032;-79
2023/06/27 07:37:06;;;;;;;2.00;1.48;;;20.60;60.10;;;;;;5081743;28;20048;-79
2023/06/27 07:39:32;;;;;;;3.75;1.67;;;21.00;59.30;;;;;;5084440;28;20438;-78
2023/06/27 07:41:58;;;;;;;1.60;1.20;;;21.10;57.20;;;;;;5093754;28;20039;-79
2023/06/27 07:44:25;;;;;;;1.98;1.13;;;21.00;57.90;;;;;;5079229;28;20025;-78
2023/06/27 07:46:50;;;;;;;3.92;1.50;;;20.80;58.50;;;;;;5074498;28;20083;-78
2023/06/27 07:49:16;;;;;;;3.85;1.55;;;20.60;58.60;;;;;;5112392;22;20408;-76
2023/06/27 07:51:42;;;;;;;1.42;1.20;;;20.30;59.20;;;;;;5093824;28;20020;-77
2023/06/27 07:54:09;;;;;;;1.30;1.08;;;20.30;60.00;;;;;;5095664;28;20472;-78
2023/06/27 07:56:36;;;;;;;1.83;1.27;;;20.60;60.10;;;;;;5075760;28;20419;-76
2023/06/27 07:59:05;;;;;;;4.07;1.23;;;21.10;58.60;;;;;;5101403;28;20024;-77
2023/06/27 08:01:31;;;;;;;2.33;1.42;;;21.40;57.80;;;;;;5094804;28;20030;-76
2023/06/27 08:03:56;;;;;;;1.83;1.52;;;21.70;56.70;;;;;;5092732;28;20111;-77
2023/06/27 08:06:22;;;;;;;1.58;1.25;;;21.60;56.50;;;;;;5093274;28;20024;-76
2023/06/27 08:08:48;;;;;;;1.85;1.40;;;21.70;56.50;;;;;;5074969;28;20040;-75
2023/06/27 08:11:14;;;;;;;1.52;1.42;;;21.70;56.90;;;;;;5074000;28;20035;-77
2023/06/27 08:13:41;;;;;;;2.67;1.40;;;21.90;56.60;;;;;;5072633;28;20031;-77
2023/06/27 08:16:09;;;;;;;3.20;1.45;;;22.00;56.00;;;;;;5093824;28;20039;-76
2023/06/27 08:18:35;;;;;;;3.35;1.60;;;22.00;55.70;;;;;;5099344;28;20073;-75
2023/06/27 08:21:00;;;;;;;1.83;1.20;;;22.00;55.20;;;;;;5075315;28;20032;-78
2023/06/27 08:23:27;;;;;;;3.63;1.38;;;22.10;54.90;;;;;;5076249;28;20052;-76
2023/06/27 08:25:54;;;;;;;2.15;1.20;;;22.20;54.10;;;;;;5078367;28;20079;-77
2023/06/27 08:28:20;;;;;;;2.03;1.15;;;22.20;54.30;;;;;;5086854;28;20090;-77
2023/06/27 08:30:46;;;;;;;1.10;1.00;;;22.40;53.50;;;;;;5098911;28;20472;-76
2023/06/27 08:33:11;;;;;;;1.17;0.95;;;22.80;52.20;;;;;;5097515;28;20201;-77
2023/06/27 08:35:38;;;;;;;1.55;1.25;;;23.10;51.20;;;;;;5083806;28;20021;-79
2023/06/27 08:38:04;;;;;;;2.30;1.30;;;23.30;49.90;;;;;;5056767;28;20102;-77
2023/06/27 08:40:35;;;;;;;1.08;0.90;;;23.30;49.30;;;;;;5056936;28;20017;-77
2023/06/27 08:43:01;;;;;;;1.52;1.42;;;23.30;49.30;;;;;;5077779;28;20429;-77
2023/06/27 08:45:26;;;;;;;1.50;1.13;;;23.10;49.00;;;;;;5073752;28;20043;-77
2023/06/27 08:47:52;;;;;;;2.78;1.67;;;23.10;49.70;;;;;;5100451;28;20032;-78
2023/06/27 08:50:21;;;;;;;4.93;1.92;;;23.30;48.30;;;;;;5086304;28;20103;-77
2023/06/27 08:52:57;;;;;;;1.83;0.93;;;23.30;48.60;;;;;;5080780;28;20067;-76
2023/06/27 08:55:27;;;;;;;2.50;1.70;;;23.50;48.60;;;;;;5088883;28;20013;-76
2023/06/27 08:57:56;;;;;;;2.08;1.30;;;23.70;48.00;;;;;;5099760;28;20024;-75
2023/06/27 09:00:25;;;;;;;2.97;1.70;;;23.70;47.80;;;;;;5115466;28;20072;-76
2023/06/27 09:02:52;;;;;;;1.73;1.63;;;23.50;47.70;;;;;;5081363;28;20059;-75
2023/06/27 09:05:18;;;;;;;1.73;1.13;;;23.40;48.10;;;;;;5079690;28;20076;-75
2023/06/27 09:07:44;;;;;;;3.40;1.35;;;23.30;48.10;;;;;;5081982;28;20190;-77
2023/06/27 09:10:10;;;;;;;3.53;1.60;;;23.30;48.10;;;;;;5082953;28;20031;-76
2023/06/27 09:12:38;;;;;;;2.78;1.52;;;23.20;48.00;;;;;;5081057;28;20472;-75
2023/06/27 09:15:05;;;;;;;2.70;1.70;;;23.10;47.90;;;;;;5077992;28;20025;-78
2023/06/27 09:17:31;;;;;;;3.45;1.80;;;23.00;48.20;;;;;;5080103;28;20180;-76
2023/06/27 09:19:56;;;;;;;2.72;1.45;;;22.80;49.30;;;;;;5080709;28;20034;-77
2023/06/27 09:22:23;;;;;;;1.65;1.35;;;22.70;50.10;;;;;;5078366;28;20521;-77
2023/06/27 09:24:49;;;;;;;2.42;1.95;;;22.80;49.90;;;;;;5077265;28;20103;-77
2023/06/27 09:27:31;;;;;;;2.13;1.55;;;22.90;50.00;;;;;;5099365;28;20027;-77
2023/06/27 09:30:04;;;;;;;1.52;1.15;;;23.10;50.00;;;;;;5094765;28;20045;-77
2023/06/27 09:32:30;;;;;;;4.82;2.00;;;23.20;49.80;;;;;;5106584;28;20024;-77
2023/06/27 09:34:59;;;;;;;2.88;1.73;;;23.40;49.10;;;;;;5100408;28;20051;-76
2023/06/27 09:37:32;;;;;;;4.15;1.60;;;23.40;49.10;;;;;;5079826;28;20058;-76
2023/06/27 09:39:57;;;;;;;2.70;1.65;;;23.10;49.40;;;;;;5082033;28;20024;-77
2023/06/27 09:42:23;;;;;;;4.32;1.70;;;22.70;49.90;;;;;;5062323;28;20033;-77
2023/06/27 09:44:49;;;;;;;3.42;1.90;;;22.70;50.40;;;;;;5082379;28;20032;-76
2023/06/27 09:47:14;;;;;;;1.63;1.30;;;22.80;50.00;;;;;;5079963;28;20076;-76
2023/06/27 09:49:41;;;;;;;1.38;0.90;;;23.20;49.80;;;;;;5080489;28;20029;-77
2023/06/27 09:52:11;;;;;;;1.50;1.15;;;23.60;49.50;;;;;;5074510;28;20077;-77
2023/06/27 09:54:44;;;;;;;2.58;1.50;;;24.10;48.80;;;;;;5099302;28;20024;-76
2023/06/27 09:57:15;;;;;;;4.07;1.65;;;24.30;47.40;;;;;;5093327;28;20905;-76
2023/06/27 09:59:41;;;;;;;2.22;1.63;;;;;;;;;;5092360;28;20032;-77
2023/06/27 10:02:14;;;;;;;3.30;1.67;;;;;;;;;;5088065;28;20036;-76
2023/06/27 10:04:40;;;;;;;3.25;1.67;;;;;;;;;;5085266;28;20085;-76
2023/06/27 10:07:08;;;;;;;5.63;2.25;;;;;;;;;;5083048;28;20028;-77
2023/06/27 10:09:37;;;;;;;1.52;1.20;;;24.20;46.80;;;;;;5081922;28;20043;-76
2023/06/27 10:12:04;;;;;;;1.30;1.20;;;24.50;46.80;;;;;;5079858;28;20099;-77
2023/06/27 10:14:32;;;;;;;3.97;1.58;;;25.20;45.70;;;;;;5078746;28;20039;-77
2023/06/27 10:16:58;;;;;;;3.05;1.75;;;25.60;44.90;;;;;;5081633;28;20028;-76
2023/06/27 10:19:25;;;;;;;2.28;2.08;;;25.70;44.20;;;;;;5079086;28;20021;-77
2023/06/27 10:21:50;;;;;;;1.45;1.25;;;25.70;44.30;;;;;;5082834;28;20048;-76
2023/06/27 10:24:17;;;;;;;4.18;1.83;;;25.40;44.70;;;;;;5080622;28;20028;-77
2023/06/27 10:26:53;;;;;;;3.35;1.83;;;25.30;45.30;;;;;;5093017;28;20138;-77
2023/06/27 10:29:18;;;;;;;1.20;1.10;;;25.30;45.10;;;;;;5115081;28;20024;-77
2023/06/27 10:31:45;;;;;;;3.17;2.13;;;25.20;45.40;;;;;;5086211;28;20123;-76
2023/06/27 10:34:18;;;;;;;2.08;1.50;;;25.20;45.10;;;;;;5076147;28;20066;-76
2023/06/27 10:37:11;;;;;;;3.85;1.60;;;25.00;45.60;;;;;;5088087;28;20442;-78
2023/06/27 10:39:38;;;;;;;2.85;1.80;;;24.70;46.30;;;;;;5092493;28;20074;-77
2023/06/27 10:42:03;;;;;;;1.60;1.50;;;24.60;46.50;;;;;;5063896;28;20029;-77
2023/06/27 10:44:30;;;;;;;1.67;1.25;;;24.70;46.90;;;;;;5075522;28;20036;-77
2023/06/27 10:47:20;;;;;;;1.58;1.48;;;24.80;46.70;;;;;;5091580;28;20032;-75
2023/06/27 10:49:47;;;;;;;3.00;1.80;;;25.10;46.30;;;;;;5098313;28;20400;-75
2023/06/27 10:52:24;;;;;;;2.38;1.52;;;25.30;45.90;;;;;;5081324;28;20029;-77
2023/06/27 10:55:18;;;;;;;4.18;1.95;;;25.30;46.00;;;;;;5077926;28;20031;-77
2023/06/27 10:57:47;;;;;;;2.03;1.70;;;25.10;46.10;;;;;;5078919;28;20020;-78
2023/06/27 11:00:23;;;;;;;3.47;1.75;;;25.00;46.70;;;;;;5103179;28;20138;-79
2023/06/27 11:02:54;;;;;;;2.50;1.80;;;24.80;46.50;;;;;;5079448;28;20115;-77
2023/06/27 11:05:34;;;;;;;3.25;1.85;;;24.30;47.10;;;;;;5056737;28;20400;-77
2023/06/27 11:08:00;;;;;;;3.47;1.60;;;24.20;47.80;;;;;;5056949;28;20028;-77
2023/06/27 11:10:29;;;;;;;2.47;1.50;;;24.20;47.90;;;;;;5074504;28;20026;-76
2023/06/27 11:13:14;;;;;;;1.88;1.35;;;24.20;47.80;;;;;;5060789;28;20114;-77
2023/06/27 11:15:44;;;;;;;1.48;1.20;;;24.30;47.60;;;;;;5075786;28;20039;-77
2023/06/27 11:18:13;;;;;;;1.42;1.10;;;24.40;47.30;;;;;;5087244;28;20116;-76
2023/06/27 11:20:40;;;;;;;1.10;1.00;;;24.50;48.10;;;;;;5074036;28;20024;-77
2023/06/27 11:23:06;;;;;;;1.75;1.42;;;24.80;47.00;;;;;;5061813;28;20045;-78
2023/06/27 11:25:36;;;;;;;3.35;1.48;;;25.10;45.90;;;;;;5096865;28;20119;-76
2023/06/27 11:28:02;;;;;;;3.00;1.45;;;25.10;46.10;;;;;;5078643;28;20465;-77
2023/06/27 11:30:29;;;;;;;1.88;1.48;;;25.00;46.10;;;;;;5101736;28;20080;-76
2023/06/27 11:32:56;;;;;;;1.90;1.77;;;25.10;46.30;;;;;;5090602;28;20110;-76
2023/06/27 11:35:23;;;;;;;3.08;2.00;;;25.20;45.80;;;;;;5074294;28;20031;-77
2023/06/27 11:37:55;;;;;;;2.33;1.90;;;25.20;45.60;;;;;;5075437;28;20046;-75
2023/06/27 11:40:24;;;;;;;2.65;1.38;;;25.10;46.00;;;;;;5074803;28;20042;-77
2023/06/27 11:42:51;;;;;;;5.88;2.20;;;25.20;46.30;;;;;;5060979;28;20159;-76
2023/06/27 11:45:17;;;;;;;2.17;1.50;;;25.40;45.30;;;;;;5076891;28;20031;-77
2023/06/27 11:47:45;;;;;;;1.65;1.40;;;;;;;;;;5092689;28;20055;-76
2023/06/27 11:50:15;;;;;;;2.72;1.70;;;25.20;45.30;;;;;;5086834;28;20051;-76
2023/06/27 11:52:41;;;;;;;1.55;1.45;;;25.40;46.10;;;;;;5058600;28;20515;-78
2023/06/27 11:55:07;;;;;;;2.78;1.38;;;25.60;45.40;;;;;;5063218;28;20107;-76
2023/06/27 11:57:47;;;;;;;1.25;1.15;;;26.00;44.60;;;;;;5094441;28;20039;-77
2023/06/27 12:00:15;;;;;;;2.53;1.92;;;26.60;44.20;;;;;;5091881;28;20036;-77
2023/06/27 12:02:41;;;;;;;4.13;1.80;;;26.90;42.70;;;;;;5080697;28;20039;-77
2023/06/27 12:05:15;;;;;;;5.50;1.80;;;26.90;42.50;;;;;;5086007;28;20051;-77
2023/06/27 12:07:53;;;;;;;2.40;1.45;;;26.70;42.50;;;;;;5104953;28;20100;-76
2023/06/27 12:10:18;;;;;;;2.25;1.60;;;26.40;43.10;;;;;;5103387;28;20055;-77
2023/06/27 12:12:44;;;;;;;1.90;1.40;;;26.20;43.70;;;;;;5106371;28;20032;-77
2023/06/27 12:15:14;;;;;;;4.90;1.77;;;26.10;44.50;;;;;;5099214;28;20389;-76
2023/06/27 12:18:03;;;;;;;5.60;1.83;;;26.20;44.50;;;;;;5083570;28;20046;-76
2023/06/27 12:20:44;;;;;;;7.75;1.98;;;26.00;45.60;;;;;;5084070;28;20088;-78
2023/06/27 12:23:10;;;;;;;;;;;26.00;45.80;;;;;;5079948;28;20024;-79
2023/06/27 12:25:40;;;;;;;2.38;1.90;;;26.20;46.00;;;;;;5101495;28;19983;-79
2023/06/27 12:28:06;;;;;;;4.15;2.00;;;26.50;45.80;;;;;;5105371;28;20020;-76
2023/06/27 12:30:32;;;;;;;2.63;1.63;;;26.80;45.70;;;;;;5104281;28;20067;-76
2023/06/27 12:32:58;;;;;;;7.15;2.22;;;27.10;44.60;;;;;;5101106;28;20028;-76
2023/06/27 12:35:24;;;;;;;1.65;1.40;;;27.00;44.30;;;;;;5106927;28;20501;-76
2023/06/27 12:37:50;;;;;;;3.78;1.85;;;26.90;44.80;;;;;;5101152;28;20028;-76
2023/06/27 12:40:16;;;;;;;2.95;2.08;;;26.50;44.70;;;;;;5089587;28;20438;-76
2023/06/27 12:42:43;;;;;;;7.88;1.83;;;26.20;45.40;;;;;;5093046;28;20039;-77
2023/06/27 12:45:10;;;;;;;2.85;1.70;;;26.10;45.70;;;;;;5089151;28;20122;-76
2023/06/27 12:47:41;;;;;;;2.88;1.55;;;25.80;46.50;;;;;;5099456;28;20022;-76
2023/06/27 12:50:08;;;;;;;2.90;1.42;;;25.80;46.60;;;;;;5099123;28;20032;-76